Flight Track Log - Related Links

Times and Time Zones

All times are in EDT time to prevent confusion due to time zone crossing. See the GJS3710 flight status page for this flight to view local times or setup timezone preferences in your user account.

Time Position Orientation Groundspeed Altitude Reporting Facility
EDT Latitude Longitude Course Direction KTS MPH feet Rate Location/Type
Wed 12:38:06 PM 39.8500 -75.3333 252° West 197 227 2,700  Level Philadelphia TRACON
Wed 12:39:06 PM 39.8333 -75.4167 255° West 255 293 4,900 2,400 Climbing Philadelphia TRACON
Wed 12:40:06 PM 39.8167 -75.5167 258° West 272 313 7,500 2,550 Climbing Philadelphia TRACON
Wed 12:41:06 PM 39.8833 -75.5500 339° North 289 333 10,000 2,263 Climbing Philadelphia TRACON
Wed 12:42:00 PM 39.9500 -75.5500 360° North 302 348 11,800 1,440 Climbing Philadelphia TRACON
Wed 12:43:11 PM 40.0600 -75.5606 356° North 342 394 13,000 595 Climbing New York Center
Wed 12:44:11 PM 40.1683 -75.5625 359° North 364 419 13,100 1,650 Climbing New York Center
Wed 12:45:11 PM 40.2578 -75.6203 334° Northwest 390 449 16,300 2,000 Climbing New York Center
Wed 12:46:11 PM 40.3267 -75.7150 314° West 350 403 17,100 1,250 Climbing New York Center
Wed 12:47:11 PM 40.3953 -75.8208 310° West 363 418 18,800 2,200 Climbing New York Center
Wed 12:48:11 PM 40.4428 -75.9281 300° West 357 411 21,500 2,150 Climbing New York Center
Wed 12:49:11 PM 40.4622 -76.0522 282° West 343 395 23,100 1,750 Climbing New York Center
Wed 12:50:11 PM 40.4836 -76.1794 283° West 354 407 25,000 1,700 Climbing New York Center
Wed 12:51:11 PM 40.5047 -76.3067 282° West 354 407 26,500 1,150 Climbing New York Center
Wed 12:52:11 PM 40.5242 -76.4256 282° West 360 414 27,300 900 Climbing New York Center
Wed 12:53:11 PM 40.5447 -76.5611 281° West 370 426 28,300 1,000 Climbing New York Center
Wed 12:54:11 PM 40.5606 -76.7044 278° West 388 447 29,300 1,050 Climbing New York Center
Wed 12:55:11 PM 40.5736 -76.8533 277° West 402 463 30,400 1,050 Climbing New York Center
Wed 12:56:11 PM 40.5867 -77.0047 277° West 415 478 31,400 1,050 Climbing New York Center
Wed 12:57:11 PM 40.6017 -77.1539 278° West 420 483 32,500 1,450 Climbing New York Center
Wed 12:58:11 PM 40.6144 -77.3000 277° West 415 478 34,300 1,350 Climbing New York Center
Wed 12:59:11 PM 40.6275 -77.4406 277° West 402 463 35,200 843 Climbing New York Center
Wed 01:01:16 PM 40.6533 -77.7531 276° West 390 449 36,900 778 Climbing Cleveland Center
Wed 01:02:16 PM 40.6672 -77.8978 277° West 390 449 37,600 550 Climbing Cleveland Center
Wed 01:03:16 PM 40.6872 -78.0392 281° West 390 449 38,000 200 Climbing Cleveland Center
Wed 01:04:16 PM 40.7069 -78.1864 280° West 395 455 38,000  Level Cleveland Center
Wed 01:05:16 PM 40.7267 -78.3308 280° West 400 460 38,000  Level Cleveland Center
Wed 01:06:16 PM 40.7481 -78.4756 281° West 406 467 38,000  Level Cleveland Center
Wed 01:07:16 PM 40.7675 -78.6228 280° West 406 467 38,000  Level Cleveland Center
Wed 01:08:16 PM 40.7867 -78.7678 280° West 406 467 38,000  Level Cleveland Center
Wed 01:09:16 PM 40.8053 -78.9097 280° West 406 467 38,000  Level Cleveland Center
Wed 01:10:16 PM 40.8261 -79.0519 281° West 406 467 38,000  Level Cleveland Center
Wed 01:11:16 PM 40.8447 -79.1969 280° West 406 467 38,000  Level Cleveland Center
Wed 01:12:16 PM 40.8631 -79.3394 280° West 406 467 38,000  Level Cleveland Center
Wed 01:13:16 PM 40.8833 -79.4872 280° West 411 473 38,000  Level Cleveland Center
Wed 01:14:16 PM 40.9014 -79.6325 279° West 411 473 38,000  Level Cleveland Center
Wed 01:15:16 PM 40.9169 -79.7781 278° West 411 473 38,000  Level Cleveland Center
Wed 01:16:16 PM 40.9344 -79.9236 279° West 411 473 38,000  Level Cleveland Center
Wed 01:17:16 PM 40.9519 -80.0553 280° West 403 464 38,000  Level Cleveland Center
Wed 01:18:16 PM 40.9692 -80.2036 279° West 408 470 38,000  Level Cleveland Center
Wed 01:19:16 PM 40.9861 -80.3494 279° West 408 470 38,000  Level Cleveland Center
Wed 01:20:16 PM 41.0053 -80.4978 280° West 408 470 38,000  Level Cleveland Center
Wed 01:21:16 PM 41.0219 -80.6464 279° West 413 475 38,000  Level Cleveland Center
Wed 01:22:16 PM 41.0383 -80.8006 278° West 413 475 38,000  Level Cleveland Center
Wed 01:23:16 PM 41.0547 -80.9631 278° West 407 468 38,000  Level Cleveland Center
Wed 01:24:16 PM 41.0625 -81.1147 274° West 412 474 38,000  Level Cleveland Center
Wed 01:25:16 PM 41.0719 -81.2661 275° West 412 474 38,000  Level Cleveland Center
Wed 01:26:16 PM 41.0814 -81.4150 275° West 417 480 38,000  Level Cleveland Center
Wed 01:27:16 PM 41.0886 -81.5667 274° West 417 480 38,000  Level Cleveland Center
Wed 01:28:16 PM 41.0975 -81.7156 275° West 417 480 38,000  Level Cleveland Center
Wed 01:29:16 PM 41.1044 -81.8508 274° West 417 480 38,000  Level Cleveland Center
Wed 01:30:16 PM 41.1133 -81.9969 275° West 408 470 38,000  Level Cleveland Center
Wed 01:31:16 PM 41.1239 -82.1461 275° West 408 470 38,000  Level Cleveland Center
Wed 01:32:16 PM 41.1339 -82.3144 275° West 408 470 38,000  Level Cleveland Center
Wed 01:33:16 PM 41.1419 -82.4692 274° West 413 475 38,000  Level Cleveland Center
Wed 01:34:16 PM 41.1475 -82.6236 273° West 422 486 38,000  Level Cleveland Center
Wed 01:35:16 PM 41.1550 -82.7756 274° West 422 486 38,000  Level Cleveland Center
Wed 01:36:16 PM 41.1644 -82.9303 275° West 422 486 38,000  Level Cleveland Center
Wed 01:37:16 PM 41.1717 -83.0825 274° West 422 486 38,000  Level Cleveland Center
Wed 01:38:16 PM 41.1767 -83.2344 273° West 422 486 38,000  Level Cleveland Center
Wed 01:39:16 PM 41.1853 -83.3975 274° West 428 493 38,000  Level Cleveland Center
Wed 01:40:16 PM 41.1917 -83.5550 273° West 428 493 38,000  Level Cleveland Center
Wed 01:41:16 PM 41.1978 -83.7181 273° West 433 498 38,000  Level Cleveland Center
Wed 01:42:16 PM 41.2058 -83.8758 274° West 433 498 38,000  Level Cleveland Center
Wed 01:43:18 PM 41.2147 -84.0153 275° West 433 498 38,000  Level Chicago Center
Wed 01:44:20 PM 41.2217 -84.1769 273° West 437 503 38,000 -48 Level Chicago Center
Wed 01:45:22 PM 41.2272 -84.3719 272° West 440 506 37,900 -1,306 Descending Chicago Center
Wed 01:46:24 PM 41.2325 -84.5367 272° West 443 510 35,300 -1,887 Descending Chicago Center
Wed 01:47:26 PM 41.2364 -84.6969 272° West 434 499 34,000 -629 Descending Chicago Center
Wed 01:48:28 PM 41.2411 -84.8522 272° West 423 487 34,000 -242 Level Chicago Center
Wed 01:49:30 PM 41.2458 -85.0047 272° West 414 476 33,500 -823 Descending Chicago Center
Wed 01:50:32 PM 41.2514 -85.1581 273° West 414 476 32,300 -1,161 Descending Chicago Center
Wed 01:51:34 PM 41.2547 -85.3103 272° West 411 473 31,100 -1,548 Descending Chicago Center
Wed 01:52:36 PM 41.2592 -85.4917 272° West 407 468 29,100 -1,839 Descending Chicago Center
Wed 01:53:38 PM 41.2631 -85.6392 272° West 399 459 27,300 -1,790 Descending Chicago Center
Wed 01:54:40 PM 41.2664 -85.7844 272° West 393 452 25,400 -1,113 Descending Chicago Center
Wed 01:55:42 PM 41.2939 -85.9161 286° West 385 443 25,000 -194 Descending Chicago Center
Wed 01:56:44 PM 41.3406 -86.0314 298° West 354 407 25,000 -1,016 Level Chicago Center
Wed 01:57:46 PM 41.3903 -86.1492 299° West 360 414 22,900 -1,984 Descending Chicago Center
Wed 01:58:48 PM 41.4397 -86.2644 300° West 359 413 20,900 -2,032 Descending Chicago Center
Wed 01:59:50 PM 41.4864 -86.3750 299° West 346 398 18,700 -2,419 Descending Chicago Center
Wed 02:00:52 PM 41.5408 -86.5072 299° West 341 392 15,900 -2,613 Descending Chicago Center
Wed 02:01:54 PM 41.5858 -86.6178 299° West 340 391 13,300 -1,839 Descending Chicago Center
Wed 02:02:56 PM 41.6306 -86.7267 299° West 329 379 12,100 -585 Descending Chicago Center
Wed 02:03:57 PM 41.7044 -86.7986 324° Northwest 363 418 12,100 -49 Level Chicago Center
Wed 02:04:59 PM 41.8050 -86.8147 353° North 365 420 12,000 -290 Descending Chicago Center
Wed 02:06:01 PM 41.8917 -86.8683 335° Northwest 367 422 11,500 -919 Descending Chicago Center
Wed 02:07:03 PM 41.9425 -87.0008 297° West 344 396 10,100 -726 Descending Chicago Center
Wed 02:08:05 PM 41.9797 -87.1172 293° West 339 390 10,000 -97 Descending Chicago Center
Wed 02:09:07 PM 41.9822 -87.2361 272° West 323 372 9,900 -774 Descending Chicago Center
Wed 02:10:09 PM 41.9811 -87.3417 269° West 288 331 8,400 -1,403 Descending Chicago Center
Wed 02:11:11 PM 41.9825 -87.4419 271° West 274 315 7,000 -1,500 Descending Chicago Center
Wed 02:12:13 PM 41.9842 -87.5600 271° West 267 307 5,300 -1,452 Descending Chicago Center
Wed 02:13:15 PM 41.9847 -87.6514 270° West 255 293 4,000 -1,152 Descending Chicago Center
Wed 02:14:18 PM 41.9842 -87.7350 270° West 244 281 2,900 -1,008 Descending Chicago Center
Wed 02:15:20 PM 41.9850 -87.8053 271° West 220 253 1,900 -726 Descending Chicago Center
Wed 02:16:22 PM 41.9853 -87.8536 270° West 168 193 1,400 -484 Descending Chicago Center
Wed 02:18:00 PM 41.9667 -87.9000 270° West  Level FlightAware Approximate

Login

Don't have an account? Register now (free) for customized features, flight alerts, and more!